Terminal Aerodrome Forecast
Issued by NWS Riverton, WY

Current Version | Previous Version | Text Only | Print | Product List | Glossary On
Versions: 1 2 3 4 5 6 7 8 9 10 11 12 13 14 15 16 17
000
FTUS45 KRIW 220500
TAFRIW
TAF
KRIW 220526Z 2206/2306 13006KT P6SM VCSH SCT040 BKN060
     FM221400 VRB05KT P6SM SCT050 BKN090
     FM222200 10009KT P6SM VCSH SCT030 BKN050
     FM230300 10007KT P6SM -SHRA SCT025 BKN040=

USA.gov is the U.S. government's official web portal to all federal, state and local government web resources and services.